sensor_id;sensor_type;location;lat;lon;timestamp;pressure;altitude;pressure_sealevel;temperature;humidity
44988;BME280;35735;52.226;21.254;2023-03-23T00:02:06;99644.88;;;10.07;100.00
44988;BME280;35735;52.226;21.254;2023-03-23T00:07:06;99643.13;;;10.06;100.00
44988;BME280;35735;52.226;21.254;2023-03-23T00:12:07;99642.16;;;10.12;100.00
44988;BME280;35735;52.226;21.254;2023-03-23T00:17:09;99641.28;;;10.11;100.00
44988;BME280;35735;52.226;21.254;2023-03-23T00:22:10;99637.69;;;10.11;100.00
44988;BME280;35735;52.226;21.254;2023-03-23T00:27:11;99630.53;;;10.05;100.00
44988;BME280;35735;52.226;21.254;2023-03-23T00:32:12;99628.72;;;10.07;100.00
44988;BME280;35735;52.226;21.254;2023-03-23T00:37:14;99626.06;;;10.06;100.00
44988;BME280;35735;52.226;21.254;2023-03-23T00:42:15;99623.41;;;10.01;100.00
44988;BME280;35735;52.226;21.254;2023-03-23T00:47:16;99623.44;;;9.98;100.00
44988;BME280;35735;52.226;21.254;2023-03-23T00:52:16;99610.00;;;9.92;100.00
44988;BME280;35735;52.226;21.254;2023-03-23T00:57:17;99605.66;;;9.78;100.00
44988;BME280;35735;52.226;21.254;2023-03-23T01:02:18;99612.00;;;9.74;100.00
44988;BME280;35735;52.226;21.254;2023-03-23T01:07:20;99605.66;;;9.78;100.00
44988;BME280;35735;52.226;21.254;2023-03-23T01:12:21;99603.81;;;9.80;100.00
44988;BME280;35735;52.226;21.254;2023-03-23T01:17:21;99593.97;;;9.79;100.00
44988;BME280;35735;52.226;21.254;2023-03-23T01:22:22;99600.34;;;9.72;100.00
44988;BME280;35735;52.226;21.254;2023-03-23T01:27:23;99585.94;;;9.75;100.00
44988;BME280;35735;52.226;21.254;2023-03-23T01:32:23;99581.41;;;9.77;100.00
44988;BME280;35735;52.226;21.254;2023-03-23T01:37:24;99580.56;;;9.73;100.00
44988;BME280;35735;52.226;21.254;2023-03-23T01:42:29;99578.72;;;9.75;100.00
44988;BME280;35735;52.226;21.254;2023-03-23T01:47:30;99588.63;;;9.73;100.00
44988;BME280;35735;52.226;21.254;2023-03-23T01:52:31;99594.03;;;9.72;100.00
44988;BME280;35735;52.226;21.254;2023-03-23T01:57:33;99587.78;;;9.71;100.00
44988;BME280;35735;52.226;21.254;2023-03-23T02:02:34;99583.34;;;9.66;100.00
44988;BME280;35735;52.226;21.254;2023-03-23T02:07:36;99580.69;;;9.61;100.00
44988;BME280;35735;52.226;21.254;2023-03-23T02:12:37;99580.66;;;9.64;100.00
44988;BME280;35735;52.226;21.254;2023-03-23T02:17:48;99570.75;;;9.68;100.00
44988;BME280;35735;52.226;21.254;2023-03-23T02:23:26;99566.19;;;9.74;100.00
44988;BME280;35735;52.226;21.254;2023-03-23T02:39:13;99559.00;;;9.73;100.00
44988;BME280;35735;52.226;21.254;2023-03-23T02:44:18;99557.25;;;9.69;100.00
44988;BME280;35735;52.226;21.254;2023-03-23T02:49:20;99541.16;;;9.60;100.00
44988;BME280;35735;52.226;21.254;2023-03-23T02:54:23;99547.44;;;9.60;100.00
44988;BME280;35735;52.226;21.254;2023-03-23T02:59:24;99539.41;;;9.59;100.00
44988;BME280;35735;52.226;21.254;2023-03-23T03:04:26;99550.19;;;9.59;100.00
44988;BME280;35735;52.226;21.254;2023-03-23T03:09:41;99546.56;;;9.60;100.00
44988;BME280;35735;52.226;21.254;2023-03-23T03:15:23;99527.75;;;9.55;100.00
44988;BME280;35735;52.226;21.254;2023-03-23T03:20:26;99539.50;;;9.45;100.00
44988;BME280;35735;52.226;21.254;2023-03-23T03:25:28;99548.53;;;9.42;100.00
44988;BME280;35735;52.226;21.254;2023-03-23T03:30:30;99544.06;;;9.38;100.00
44988;BME280;35735;52.226;21.254;2023-03-23T03:35:36;99530.56;;;9.43;100.00
44988;BME280;35735;52.226;21.254;2023-03-23T03:40:38;99546.69;;;9.46;100.00
44988;BME280;35735;52.226;21.254;2023-03-23T03:45:39;99550.22;;;9.56;100.00
44988;BME280;35735;52.226;21.254;2023-03-23T03:50:40;99556.47;;;9.58;100.00
44988;BME280;35735;52.226;21.254;2023-03-23T03:55:40;99562.75;;;9.57;100.00
44988;BME280;35735;52.226;21.254;2023-03-23T04:00:41;99557.44;;;9.51;100.00
44988;BME280;35735;52.226;21.254;2023-03-23T04:05:42;99559.31;;;9.42;100.00
44988;BME280;35735;52.226;21.254;2023-03-23T04:10:43;99547.56;;;9.48;100.00
44988;BME280;35735;52.226;21.254;2023-03-23T04:15:45;99535.91;;;9.48;100.00
44988;BME280;35735;52.226;21.254;2023-03-23T04:20:47;99537.75;;;9.45;100.00
44988;BME280;35735;52.226;21.254;2023-03-23T04:25:49;99534.16;;;9.40;100.00
44988;BME280;35735;52.226;21.254;2023-03-23T04:30:51;99522.53;;;9.37;100.00
44988;BME280;35735;52.226;21.254;2023-03-23T04:35:53;99527.09;;;9.30;100.00
44988;BME280;35735;52.226;21.254;2023-03-23T04:40:55;99527.16;;;9.24;100.00
44988;BME280;35735;52.226;21.254;2023-03-23T04:45:57;99532.56;;;9.24;100.00
44988;BME280;35735;52.226;21.254;2023-03-23T04:51:01;99528.94;;;9.23;100.00
44988;BME280;35735;52.226;21.254;2023-03-23T04:56:02;99527.16;;;9.24;100.00
44988;BME280;35735;52.226;21.254;2023-03-23T05:01:03;99532.59;;;9.18;100.00
44988;BME280;35735;52.226;21.254;2023-03-23T05:06:04;99538.00;;;9.15;100.00
44988;BME280;35735;52.226;21.254;2023-03-23T05:11:05;99520.94;;;9.17;100.00
44988;BME280;35735;52.226;21.254;2023-03-23T05:16:06;99515.53;;;9.19;100.00
44988;BME280;35735;52.226;21.254;2023-03-23T05:21:07;99523.56;;;9.20;100.00
44988;BME280;35735;52.226;21.254;2023-03-23T05:26:07;99526.28;;;9.20;100.00
44988;BME280;35735;52.226;21.254;2023-03-23T05:31:08;99524.47;;;9.24;100.00
44988;BME280;35735;52.226;21.254;2023-03-23T05:36:09;99529.78;;;9.30;100.00
44988;BME280;35735;52.226;21.254;2023-03-23T05:41:09;99528.87;;;9.33;100.00
44988;BME280;35735;52.226;21.254;2023-03-23T05:46:10;99523.44;;;9.37;100.00
44988;BME280;35735;52.226;21.254;2023-03-23T05:51:10;99515.31;;;9.42;100.00
44988;BME280;35735;52.226;21.254;2023-03-23T05:56:11;99525.19;;;9.41;100.00
44988;BME280;35735;52.226;21.254;2023-03-23T06:01:11;99526.03;;;9.48;100.00
44988;BME280;35735;52.226;21.254;2023-03-23T06:06:12;99528.69;;;9.51;100.00
44988;BME280;35735;52.226;21.254;2023-03-23T06:11:12;99533.97;;;9.62;100.00
44988;BME280;35735;52.226;21.254;2023-03-23T06:16:13;99530.28;;;9.72;100.00
44988;BME280;35735;52.226;21.254;2023-03-23T06:21:13;99540.94;;;9.81;100.00
44988;BME280;35735;52.226;21.254;2023-03-23T06:26:15;99546.25;;;9.91;100.00
44988;BME280;35735;52.226;21.254;2023-03-23T06:31:18;99542.50;;;10.04;100.00
44988;BME280;35735;52.226;21.254;2023-03-23T06:36:19;99540.56;;;10.14;100.00
44988;BME280;35735;52.226;21.254;2023-03-23T06:41:19;99541.34;;;10.22;100.00
44988;BME280;35735;52.226;21.254;2023-03-23T06:46:20;99548.34;;;10.40;100.00
44988;BME280;35735;52.226;21.254;2023-03-23T06:51:20;99561.63;;;10.55;100.00
44988;BME280;35735;52.226;21.254;2023-03-23T06:56:21;99567.75;;;10.70;100.00
44988;BME280;35735;52.226;21.254;2023-03-23T07:01:22;99555.69;;;10.92;100.00
44988;BME280;35735;52.226;21.254;2023-03-23T07:06:23;99554.38;;;11.21;100.00
44988;BME280;35735;52.226;21.254;2023-03-23T07:11:24;99544.88;;;11.48;100.00
44988;BME280;35735;52.226;21.254;2023-03-23T07:16:25;99551.72;;;11.70;100.00
44988;BME280;35735;52.226;21.254;2023-03-23T07:21:25;99544.03;;;11.98;100.00
44988;BME280;35735;52.226;21.254;2023-03-23T07:26:26;99537.25;;;12.19;100.00
44988;BME280;35735;52.226;21.254;2023-03-23T07:31:26;99537.50;;;12.50;100.00
44988;BME280;35735;52.226;21.254;2023-03-23T07:36:27;99540.09;;;12.95;100.00
44988;BME280;35735;52.226;21.254;2023-03-23T07:41:28;99546.34;;;13.37;100.00
44988;BME280;35735;52.226;21.254;2023-03-23T07:46:28;99549.88;;;13.73;100.00
44988;BME280;35735;52.226;21.254;2023-03-23T07:51:29;99543.72;;;14.01;100.00
44988;BME280;35735;52.226;21.254;2023-03-23T07:56:30;99558.47;;;14.23;100.00
44988;BME280;35735;52.226;21.254;2023-03-23T08:01:31;99558.78;;;14.44;100.00
44988;BME280;35735;52.226;21.254;2023-03-23T08:06:33;99552.34;;;14.78;100.00
44988;BME280;35735;52.226;21.254;2023-03-23T08:11:35;99545.72;;;15.15;100.00
44988;BME280;35735;52.226;21.254;2023-03-23T08:16:35;99542.53;;;15.30;100.00
44988;BME280;35735;52.226;21.254;2023-03-23T08:21:36;99536.72;;;15.41;98.91
44988;BME280;35735;52.226;21.254;2023-03-23T08:26:36;99533.75;;;15.49;97.96
44988;BME280;35735;52.226;21.254;2023-03-23T08:31:39;99523.63;;;15.52;97.18
44988;BME280;35735;52.226;21.254;2023-03-23T08:36:39;99518.00;;;15.59;96.14
44988;BME280;35735;52.226;21.254;2023-03-23T08:41:40;99518.00;;;15.59;95.16
44988;BME280;35735;52.226;21.254;2023-03-23T08:46:41;99511.09;;;15.73;94.75
44988;BME280;35735;52.226;21.254;2023-03-23T08:51:42;99510.03;;;16.04;94.46
44988;BME280;35735;52.226;21.254;2023-03-23T08:56:43;99498.50;;;16.45;93.67
44988;BME280;35735;52.226;21.254;2023-03-23T09:01:43;99501.09;;;16.72;92.59
44988;BME280;35735;52.226;21.254;2023-03-23T09:06:44;99495.97;;;16.88;92.05
44988;BME280;35735;52.226;21.254;2023-03-23T09:11:44;99514.75;;;16.94;90.37
44988;BME280;35735;52.226;21.254;2023-03-23T09:16:45;99522.75;;;16.98;89.51
44988;BME280;35735;52.226;21.254;2023-03-23T09:21:46;99522.00;;;16.95;88.78
44988;BME280;35735;52.226;21.254;2023-03-23T09:26:46;99519.50;;;16.89;88.20
44988;BME280;35735;52.226;21.254;2023-03-23T09:31:47;99526.19;;;16.80;88.07
44988;BME280;35735;52.226;21.254;2023-03-23T09:36:48;99519.34;;;16.70;87.81
44988;BME280;35735;52.226;21.254;2023-03-23T09:53:17;99498.69;;;16.64;87.29
44988;BME280;35735;52.226;21.254;2023-03-23T09:58:31;99497.53;;;16.70;87.14
44988;BME280;35735;52.226;21.254;2023-03-23T10:03:43;99490.06;;;16.75;86.83
44988;BME280;35735;52.226;21.254;2023-03-23T10:08:52;99480.69;;;16.82;86.84
44988;BME280;35735;52.226;21.254;2023-03-23T10:25:08;99480.16;;;17.18;84.84
44988;BME280;35735;52.226;21.254;2023-03-23T10:30:23;99468.03;;;17.25;84.06
44988;BME280;35735;52.226;21.254;2023-03-23T10:35:57;99463.16;;;17.54;84.50
44988;BME280;35735;52.226;21.254;2023-03-23T10:41:11;99451.66;;;17.88;83.31
44988;BME280;35735;52.226;21.254;2023-03-23T10:46:38;99447.53;;;17.99;81.72
44988;BME280;35735;52.226;21.254;2023-03-23T10:51:47;99445.06;;;18.13;81.32
44988;BME280;35735;52.226;21.254;2023-03-23T10:57:27;99450.22;;;18.19;80.94
44988;BME280;35735;52.226;21.254;2023-03-23T11:02:29;99440.94;;;18.23;80.02
44988;BME280;35735;52.226;21.254;2023-03-23T11:07:32;99447.94;;;18.29;79.73
44988;BME280;35735;52.226;21.254;2023-03-23T11:12:34;99445.53;;;18.42;79.02
44988;BME280;35735;52.226;21.254;2023-03-23T11:17:34;99435.94;;;18.52;78.77
44988;BME280;35735;52.226;21.254;2023-03-23T11:22:35;99425.28;;;18.65;78.43
44988;BME280;35735;52.226;21.254;2023-03-23T11:27:37;99426.94;;;18.88;76.46
44988;BME280;35735;52.226;21.254;2023-03-23T11:32:43;99413.56;;;18.99;74.38
44988;BME280;35735;52.226;21.254;2023-03-23T11:37:48;99419.88;;;19.01;74.11
44988;BME280;35735;52.226;21.254;2023-03-23T11:43:09;99403.47;;;19.01;71.87
44988;BME280;35735;52.226;21.254;2023-03-23T11:48:19;99407.81;;;19.05;73.58
44988;BME280;35735;52.226;21.254;2023-03-23T11:53:50;99394.94;;;19.07;73.47
44988;BME280;35735;52.226;21.254;2023-03-23T11:58:55;99393.91;;;19.10;73.39
44988;BME280;35735;52.226;21.254;2023-03-23T12:09:42;99372.59;;;19.17;72.06
44988;BME280;35735;52.226;21.254;2023-03-23T12:15:14;99364.16;;;19.21;72.02
44988;BME280;35735;52.226;21.254;2023-03-23T12:20:57;99349.72;;;19.35;71.17
44988;BME280;35735;52.226;21.254;2023-03-23T12:26:38;99345.37;;;19.49;71.19
44988;BME280;35735;52.226;21.254;2023-03-23T12:31:54;99346.25;;;19.49;70.03
44988;BME280;35735;52.226;21.254;2023-03-23T12:37:11;99341.84;;;19.47;69.92
44988;BME280;35735;52.226;21.254;2023-03-23T12:42:24;99333.94;;;19.58;70.52
44988;BME280;35735;52.226;21.254;2023-03-23T12:53:03;99330.44;;;19.72;68.98
44988;BME280;35735;52.226;21.254;2023-03-23T12:58:19;99329.72;;;19.68;69.19
44988;BME280;35735;52.226;21.254;2023-03-23T13:03:38;99337.63;;;19.57;70.54
44988;BME280;35735;52.226;21.254;2023-03-23T13:08:51;99321.47;;;19.52;70.89
44988;BME280;35735;52.226;21.254;2023-03-23T13:14:00;99322.28;;;19.37;70.54
44988;BME280;35735;52.226;21.254;2023-03-23T13:19:21;99326.25;;;19.31;71.21
44988;BME280;35735;52.226;21.254;2023-03-23T13:24:28;99315.06;;;19.18;70.94
44988;BME280;35735;52.226;21.254;2023-03-23T13:29:30;99319.00;;;19.13;71.11
44988;BME280;35735;52.226;21.254;2023-03-23T13:34:31;99321.34;;;19.03;70.93
44988;BME280;35735;52.226;21.254;2023-03-23T13:39:36;99319.31;;;18.89;71.18
44988;BME280;35735;52.226;21.254;2023-03-23T13:49:58;99318.31;;;18.73;72.36
44988;BME280;35735;52.226;21.254;2023-03-23T14:05:43;99316.59;;;18.52;72.92
44988;BME280;35735;52.226;21.254;2023-03-23T14:16:03;99305.25;;;18.43;72.71
44988;BME280;35735;52.226;21.254;2023-03-23T14:21:06;99302.69;;;18.40;72.43
44988;BME280;35735;52.226;21.254;2023-03-23T14:26:20;99312.63;;;18.41;72.34
44988;BME280;35735;52.226;21.254;2023-03-23T14:31:23;99327.19;;;18.41;72.36
44988;BME280;35735;52.226;21.254;2023-03-23T14:36:30;99329.19;;;18.38;72.23
44988;BME280;35735;52.226;21.254;2023-03-23T14:41:31;99328.34;;;18.36;72.39
44988;BME280;35735;52.226;21.254;2023-03-23T14:46:32;99347.03;;;18.26;73.04
44988;BME280;35735;52.226;21.254;2023-03-23T14:51:33;99352.38;;;18.10;73.40
44988;BME280;35735;52.226;21.254;2023-03-23T14:56:36;99360.31;;;17.95;74.43
44988;BME280;35735;52.226;21.254;2023-03-23T15:01:37;99370.31;;;17.76;74.80
44988;BME280;35735;52.226;21.254;2023-03-23T15:06:42;99375.72;;;17.57;75.69
44988;BME280;35735;52.226;21.254;2023-03-23T15:11:51;99377.91;;;17.49;76.52
44988;BME280;35735;52.226;21.254;2023-03-23T15:16:56;99390.00;;;17.43;77.21
44988;BME280;35735;52.226;21.254;2023-03-23T15:22:16;99385.16;;;17.29;77.69
44988;BME280;35735;52.226;21.254;2023-03-23T15:27:44;99392.72;;;17.22;78.30
44988;BME280;35735;52.226;21.254;2023-03-23T15:33:06;99388.81;;;17.08;78.23
44988;BME280;35735;52.226;21.254;2023-03-23T15:38:22;99390.06;;;16.99;78.45
44988;BME280;35735;52.226;21.254;2023-03-23T15:43:27;99389.44;;;16.92;78.86
44988;BME280;35735;52.226;21.254;2023-03-23T15:53:56;99395.41;;;16.80;79.39
44988;BME280;35735;52.226;21.254;2023-03-23T15:58:57;99391.97;;;16.75;79.62
44988;BME280;35735;52.226;21.254;2023-03-23T16:04:08;99402.19;;;16.70;80.03
44988;BME280;35735;52.226;21.254;2023-03-23T16:09:14;99410.66;;;16.62;80.04
44988;BME280;35735;52.226;21.254;2023-03-23T16:14:15;99417.31;;;16.55;80.43
44988;BME280;35735;52.226;21.254;2023-03-23T16:19:16;99432.91;;;16.51;80.95
44988;BME280;35735;52.226;21.254;2023-03-23T16:24:16;99425.72;;;16.48;81.12
44988;BME280;35735;52.226;21.254;2023-03-23T16:29:17;99435.91;;;16.43;81.40
44988;BME280;35735;52.226;21.254;2023-03-23T16:34:17;99436.03;;;16.40;81.58
44988;BME280;35735;52.226;21.254;2023-03-23T16:39:18;99439.84;;;16.36;82.03
44988;BME280;35735;52.226;21.254;2023-03-23T16:44:19;99441.00;;;16.30;82.45
44988;BME280;35735;52.226;21.254;2023-03-23T16:49:19;99440.47;;;16.21;82.82
44988;BME280;35735;52.226;21.254;2023-03-23T16:54:20;99458.44;;;16.01;83.28
44988;BME280;35735;52.226;21.254;2023-03-23T16:59:20;99473.28;;;15.92;83.90
44988;BME280;35735;52.226;21.254;2023-03-23T17:04:21;99464.66;;;15.80;84.30
44988;BME280;35735;52.226;21.254;2023-03-23T17:09:21;99474.91;;;15.71;84.80
44988;BME280;35735;52.226;21.254;2023-03-23T17:14:22;99472.44;;;15.65;85.21
44988;BME280;35735;52.226;21.254;2023-03-23T17:19:23;99479.12;;;15.55;85.52
44988;BME280;35735;52.226;21.254;2023-03-23T17:24:24;99483.94;;;15.47;86.00
44988;BME280;35735;52.226;21.254;2023-03-23T17:29:24;99479.56;;;15.43;86.48
44988;BME280;35735;52.226;21.254;2023-03-23T17:34:25;99465.34;;;15.34;86.91
44988;BME280;35735;52.226;21.254;2023-03-23T17:39:25;99470.16;;;15.26;87.22
44988;BME280;35735;52.226;21.254;2023-03-23T17:44:26;99476.66;;;15.22;87.51
44988;BME280;35735;52.226;21.254;2023-03-23T17:49:27;99481.34;;;15.17;87.92
44988;BME280;35735;52.226;21.254;2023-03-23T17:54:28;99487.78;;;15.14;88.46
44988;BME280;35735;52.226;21.254;2023-03-23T17:59:29;99498.69;;;15.13;88.87
44988;BME280;35735;52.226;21.254;2023-03-23T18:04:30;99529.47;;;15.13;88.97
44988;BME280;35735;52.226;21.254;2023-03-23T18:09:30;99530.66;;;15.05;89.25
44988;BME280;35735;52.226;21.254;2023-03-23T18:14:31;99536.13;;;15.03;89.54
44988;BME280;35735;52.226;21.254;2023-03-23T18:19:31;99543.56;;;14.98;89.84
44988;BME280;35735;52.226;21.254;2023-03-23T18:24:32;99542.69;;;14.97;89.94
44988;BME280;35735;52.226;21.254;2023-03-23T18:29:32;99548.28;;;14.91;90.22
44988;BME280;35735;52.226;21.254;2023-03-23T18:34:33;99539.22;;;14.92;90.57
44988;BME280;35735;52.226;21.254;2023-03-23T18:39:34;99539.13;;;14.95;90.62
44988;BME280;35735;52.226;21.254;2023-03-23T18:44:35;99549.03;;;14.96;90.65
44988;BME280;35735;52.226;21.254;2023-03-23T18:49:35;99528.44;;;14.89;91.02
44988;BME280;35735;52.226;21.254;2023-03-23T18:54:36;99545.03;;;14.80;91.24
44988;BME280;35735;52.226;21.254;2023-03-23T18:59:37;99539.72;;;14.77;91.44
44988;BME280;35735;52.226;21.254;2023-03-23T19:04:37;99545.16;;;14.77;91.69
44988;BME280;35735;52.226;21.254;2023-03-23T19:09:38;99545.09;;;14.78;91.82
44988;BME280;35735;52.226;21.254;2023-03-23T19:14:39;99534.06;;;14.83;92.25
44988;BME280;35735;52.226;21.254;2023-03-23T19:19:40;99537.66;;;14.85;92.40
44988;BME280;35735;52.226;21.254;2023-03-23T19:24:40;99526.91;;;14.80;92.31
44988;BME280;35735;52.226;21.254;2023-03-23T19:29:41;99535.34;;;14.71;92.30
44988;BME280;35735;52.226;21.254;2023-03-23T19:34:41;99543.53;;;14.70;92.24
44988;BME280;35735;52.226;21.254;2023-03-23T19:39:42;99545.69;;;14.58;92.12
44988;BME280;35735;52.226;21.254;2023-03-23T19:44:43;99544.06;;;14.51;92.21
44988;BME280;35735;52.226;21.254;2023-03-23T19:49:43;99540.44;;;14.52;92.18
44988;BME280;35735;52.226;21.254;2023-03-23T19:54:44;99530.56;;;14.48;92.50
44988;BME280;35735;52.226;21.254;2023-03-23T19:59:45;99529.91;;;14.40;92.41
44988;BME280;35735;52.226;21.254;2023-03-23T20:04:45;99524.69;;;14.34;92.12
44988;BME280;35735;52.226;21.254;2023-03-23T20:09:46;99522.06;;;14.31;91.89
44988;BME280;35735;52.226;21.254;2023-03-23T20:14:46;99524.94;;;14.24;91.66
44988;BME280;35735;52.226;21.254;2023-03-23T20:19:47;99529.63;;;14.19;91.74
44988;BME280;35735;52.226;21.254;2023-03-23T20:24:47;99543.28;;;14.16;91.85
44988;BME280;35735;52.226;21.254;2023-03-23T20:29:48;99524.44;;;14.12;91.67
44988;BME280;35735;52.226;21.254;2023-03-23T20:34:49;99534.28;;;14.14;91.68
44988;BME280;35735;52.226;21.254;2023-03-23T20:39:49;99535.19;;;14.15;91.69
44988;BME280;35735;52.226;21.254;2023-03-23T20:44:50;99527.19;;;14.10;91.84
44988;BME280;35735;52.226;21.254;2023-03-23T20:49:50;99522.81;;;14.04;92.23
44988;BME280;35735;52.226;21.254;2023-03-23T20:54:52;99506.63;;;14.01;92.72
44988;BME280;35735;52.226;21.254;2023-03-23T20:59:54;99512.19;;;13.97;93.42
44988;BME280;35735;52.226;21.254;2023-03-23T21:04:54;99509.53;;;13.95;94.04
44988;BME280;35735;52.226;21.254;2023-03-23T21:09:55;99512.19;;;13.97;94.39
44988;BME280;35735;52.226;21.254;2023-03-23T21:14:56;99520.13;;;14.03;94.74
44988;BME280;35735;52.226;21.254;2023-03-23T21:19:56;99522.00;;;14.01;95.11
44988;BME280;35735;52.226;21.254;2023-03-23T21:24:57;99526.47;;;14.03;95.51
44988;BME280;35735;52.226;21.254;2023-03-23T21:29:58;99524.56;;;14.07;95.79
44988;BME280;35735;52.226;21.254;2023-03-23T21:34:58;99529.06;;;14.06;96.00
44988;BME280;35735;52.226;21.254;2023-03-23T21:39:59;99527.44;;;14.01;96.24
44988;BME280;35735;52.226;21.254;2023-03-23T21:45:00;99522.19;;;13.95;96.64
44988;BME280;35735;52.226;21.254;2023-03-23T21:50:01;99520.50;;;13.90;96.98
44988;BME280;35735;52.226;21.254;2023-03-23T21:55:02;99518.72;;;13.89;97.23
44988;BME280;35735;52.226;21.254;2023-03-23T22:00:08;99534.22;;;13.84;97.39
44988;BME280;35735;52.226;21.254;2023-03-23T22:05:10;99531.59;;;13.81;97.64
44988;BME280;35735;52.226;21.254;2023-03-23T22:10:11;99533.47;;;13.79;97.89
44988;BME280;35735;52.226;21.254;2023-03-23T22:15:12;99537.13;;;13.78;98.05
44988;BME280;35735;52.226;21.254;2023-03-23T22:20:13;99540.75;;;13.77;98.06
44988;BME280;35735;52.226;21.254;2023-03-23T22:25:13;99547.12;;;13.75;98.23
44988;BME280;35735;52.226;21.254;2023-03-23T22:30:14;99543.53;;;13.74;98.19
44988;BME280;35735;52.226;21.254;2023-03-23T22:35:15;99550.87;;;13.70;98.36
44988;BME280;35735;52.226;21.254;2023-03-23T22:40:17;99543.66;;;13.69;98.44
44988;BME280;35735;52.226;21.254;2023-03-23T22:45:18;99543.84;;;13.63;98.47
44988;BME280;35735;52.226;21.254;2023-03-23T22:50:18;99558.63;;;13.51;98.73
44988;BME280;35735;52.226;21.254;2023-03-23T22:55:19;99564.88;;;13.53;98.91
44988;BME280;35735;52.226;21.254;2023-03-23T23:00:20;99556.97;;;13.44;99.07
44988;BME280;35735;52.226;21.254;2023-03-23T23:05:20;99549.88;;;13.40;99.21
44988;BME280;35735;52.226;21.254;2023-03-23T23:10:21;99555.44;;;13.34;99.37
44988;BME280;35735;52.226;21.254;2023-03-23T23:15:22;99553.72;;;13.30;99.54
44988;BME280;35735;52.226;21.254;2023-03-23T23:20:22;99568.13;;;13.30;99.72
44988;BME280;35735;52.226;21.254;2023-03-23T23:25:23;99560.03;;;13.29;99.68
44988;BME280;35735;52.226;21.254;2023-03-23T23:30:24;99551.16;;;13.24;99.63
44988;BME280;35735;52.226;21.254;2023-03-23T23:35:25;99563.78;;;13.25;99.52
44988;BME280;35735;52.226;21.254;2023-03-23T23:40:26;99564.75;;;13.21;99.55
44988;BME280;35735;52.226;21.254;2023-03-23T23:45:27;99566.78;;;13.11;99.48
44988;BME280;35735;52.226;21.254;2023-03-23T23:50:27;99567.06;;;13.00;99.59
44988;BME280;35735;52.226;21.254;2023-03-23T23:55:28;99573.41;;;12.99;99.73
